Aeroporto :
LOGIN :

Iscrizione | Disclaimer

   EN    FR    IT 

 










Sommario :    VFR   VFR Marginale   IFR   IFR Intensivo   IFR Molto Intensivo
Visibilità : 
Base nubi : 
>= 8 km
>= 3000ft
5 / 8 km
1000 / 3000 ft
1500m / 5 km
500 / 1000 ft
800 / 1500m
200 / 500 ft
< 800m
< 200 ft
Simboli :   Temporali  Nebbia  Neve Forte  Precipitazioni Forti  Vento > 20 kt
SIGMETs :   Varie  Temporali  Ghiacco  Turbolenza  Onda orograficha  Ceneri Vulcaniche






- Altitudine del aeroporto : 362 ft
- Codice IATA : WAW


EPWA - Warsaw Okecie

ULTIMO METAR :
  • 250400Z 25006KT 210V290 8000 BKN008 00/M01 Q1017 NOSIG

METARs OBSOLETI :
  • 250330Z 25006KT 210V290 9000 BKN008 00/M01 Q1017 NOSIG
  • 250300Z 25007KT 210V280 8000 BKN009 00/M02 Q1017 NOSIG
  • 250230Z 26008KT 230V290 8000 BKN009 00/M02 Q1018 NOSIG
  • 250200Z 26008KT 220V290 9999 BKN010 00/M02 Q1018 BECMG BKN008
  • 250130Z 26008KT 230V300 9999 BKN011 00/M02 Q1018 BECMG BKN008

TAF TAF EPWA
Valido dal 25 a 03 ore il 26 a 03 ore UTC


250230Z 2503/2603 26008KT 7000 BKN012
BECMG 2503/2505 BKN006
TEMPO 2503/2508 3500 -RADZ BR BKN003
PROB40
TEMPO 2503/2508 1600 -FZDZ -FZRA BR
TEMPO 2508/2603 3000 -RASN BR BKN003
PROB40
TEMPO 2518/2603 1400 BR OVC001



MetMap, La meteo Aeronautica in un colpo d'occhio ! - Copyright ORBIFLY Dicembre 2007 - Disclaimer

ORBIFLY MET'MAP TEAM :

Programmazione e sviluppo : Alexandra Zaïnal
Concezione : Baudouin d'Aumeries
Aiuto per la programmazione : Marc-Olivier Méhu
Supporto tecnico e logistico : Manuel Goepfert
Aiuto per la traduzione : Arnaldo La Scala

Contatto : metmap@orbifly.com




FONTI E CREDITI :

   NOAA